createdAt,value
2022-11-22T00:00:33.291Z,10.11
2022-11-22T00:05:36.472Z,10.14
2022-11-22T00:10:39.751Z,10.12
2022-11-22T00:15:43.188Z,10.27
2022-11-22T00:20:47.038Z,10.33
2022-11-22T00:25:50.745Z,10.59
2022-11-22T00:30:54.311Z,10.73
2022-11-22T00:35:58.273Z,10.69
2022-11-22T00:41:01.978Z,10.70
2022-11-22T00:46:05.474Z,10.58
2022-11-22T00:51:09.171Z,10.44
2022-11-22T00:56:13.519Z,10.49
2022-11-22T01:01:17.143Z,10.45
2022-11-22T01:06:20.438Z,10.44
2022-11-22T01:11:24.251Z,10.39
2022-11-22T01:16:27.409Z,10.28
2022-11-22T01:21:30.883Z,10.39
2022-11-22T01:26:35.345Z,10.39
2022-11-22T01:31:38.388Z,10.48
2022-11-22T01:36:42.222Z,10.45
2022-11-22T01:41:45.652Z,10.59
2022-11-22T01:46:52.341Z,10.85
2022-11-22T01:52:01.083Z,10.84
2022-11-22T01:57:09.367Z,11.07
2022-11-22T02:02:13.714Z,10.96
2022-11-22T02:07:42.375Z,11.39
2022-11-22T02:12:46.554Z,11.12
2022-11-22T02:17:50.307Z,10.73
2022-11-22T02:23:02.341Z,10.72
2022-11-22T02:28:05.901Z,10.75
2022-11-22T02:33:09.455Z,10.76
2022-11-22T02:38:25.410Z,10.57
2022-11-22T02:43:37.997Z,10.65
2022-11-22T02:48:42.523Z,10.74
2022-11-22T02:53:47.506Z,10.49
2022-11-22T02:58:51.420Z,10.59
2022-11-22T03:03:54.982Z,10.70
2022-11-22T03:08:59.120Z,10.65
2022-11-22T03:14:03.196Z,10.77
2022-11-22T03:19:07.210Z,10.87
2022-11-22T03:24:11.476Z,10.76
2022-11-22T03:29:25.088Z,10.66
2022-11-22T03:34:28.151Z,10.44
2022-11-22T03:39:32.209Z,10.46
2022-11-22T03:44:35.838Z,10.78
2022-11-22T03:49:39.398Z,10.78
2022-11-22T03:54:42.479Z,10.96
2022-11-22T03:59:45.942Z,11.04
2022-11-22T04:04:49.936Z,10.93
2022-11-22T04:09:53.656Z,10.71
2022-11-22T04:15:07.339Z,10.76
2022-11-22T04:20:39.209Z,10.80
2022-11-22T04:25:46.743Z,10.60
2022-11-22T04:31:09.898Z,10.63
2022-11-22T04:36:13.538Z,10.37
2022-11-22T04:41:16.957Z,10.55
2022-11-22T04:46:20.058Z,10.52
2022-11-22T04:51:42.782Z,10.59
2022-11-22T04:56:45.996Z,10.49
2022-11-22T05:01:49.307Z,10.40
2022-11-22T05:06:52.689Z,10.08
2022-11-22T05:11:56.900Z,10.29
2022-11-22T05:16:59.941Z,10.46
2022-11-22T05:22:03.434Z,10.31
2022-11-22T05:27:06.573Z,10.11
2022-11-22T05:32:10.905Z,10.35
2022-11-22T05:37:14.850Z,10.23
2022-11-22T05:42:18.736Z,10.32
2022-11-22T05:47:22.623Z,10.61
2022-11-22T05:52:26.305Z,10.81
2022-11-22T05:57:29.954Z,10.86
2022-11-22T06:02:33.598Z,10.95
2022-11-22T06:07:37.417Z,11.14
2022-11-22T06:12:40.898Z,11.28
2022-11-22T06:17:44.543Z,11.16
2022-11-22T06:22:48.669Z,11.10
2022-11-22T06:27:51.897Z,11.15
2022-11-22T06:32:55.955Z,11.22
2022-11-22T06:38:01.050Z,11.16
2022-11-22T06:43:04.837Z,11.19
2022-11-22T06:48:08.603Z,11.47
2022-11-22T06:53:32.307Z,11.28
2022-11-22T06:58:36.719Z,11.59
2022-11-22T07:03:41.440Z,12.07
2022-11-22T07:08:46.072Z,11.75
2022-11-22T07:13:50.862Z,12.81
2022-11-22T07:18:54.835Z,12.42
2022-11-22T07:23:58.217Z,11.98
2022-11-22T07:29:01.338Z,11.97
2022-11-22T07:34:04.849Z,12.12
2022-11-22T07:39:08.010Z,12.49
2022-11-22T07:44:11.849Z,12.95
2022-11-22T07:49:15.011Z,13.40
2022-11-22T07:54:18.588Z,13.87
2022-11-22T07:59:22.118Z,13.18
2022-11-22T08:04:25.639Z,12.74
2022-11-22T08:09:29.292Z,12.58
2022-11-22T08:14:32.699Z,12.40
2022-11-22T08:19:36.258Z,12.10
2022-11-22T08:24:39.631Z,12.03
2022-11-22T08:29:43.193Z,12.02
2022-11-22T08:34:47.505Z,12.20
2022-11-22T08:39:50.721Z,12.11
2022-11-22T08:44:54.320Z,12.28
2022-11-22T08:49:57.790Z,12.69
2022-11-22T08:55:01.805Z,13.44
2022-11-22T09:00:06.978Z,14.44
2022-11-22T09:05:10.305Z,14.90
2022-11-22T09:10:13.706Z,14.11
2022-11-22T09:15:17.129Z,13.67
2022-11-22T09:20:20.334Z,13.29
2022-11-22T09:25:23.509Z,13.07
2022-11-22T09:30:27.131Z,12.57
2022-11-22T09:35:30.851Z,12.55
2022-11-22T09:40:34.901Z,12.96
2022-11-22T09:45:46.968Z,13.11
2022-11-22T09:50:59.680Z,12.79
2022-11-22T09:56:10.063Z,13.02
2022-11-22T10:01:23.116Z,13.04
2022-11-22T10:06:46.141Z,12.83
2022-11-22T10:12:04.080Z,13.09
2022-11-22T10:17:49.642Z,13.46
2022-11-22T10:22:53.453Z,12.93
2022-11-22T10:28:01.230Z,13.08
2022-11-22T10:33:04.356Z,12.74
2022-11-22T10:38:33.297Z,12.07
2022-11-22T10:44:15.627Z,11.89
2022-11-22T10:49:54.368Z,11.85
2022-11-22T10:55:45.307Z,12.39
2022-11-22T11:01:00.527Z,12.63
2022-11-22T11:06:26.638Z,13.11
2022-11-22T11:11:39.128Z,12.60
2022-11-22T11:16:43.273Z,12.78
2022-11-22T11:21:48.012Z,12.05
2022-11-22T11:26:55.032Z,11.68
2022-11-22T11:32:07.575Z,11.65
2022-11-22T11:37:43.931Z,11.13
2022-11-22T11:42:47.426Z,11.51
2022-11-22T11:47:50.751Z,11.55
2022-11-22T11:53:06.487Z,11.81
2022-11-22T11:58:35.838Z,12.28
2022-11-22T12:03:39.423Z,11.50
2022-11-22T12:08:43.254Z,11.34
2022-11-22T12:19:25.948Z,10.81
2022-11-22T12:25:02.630Z,10.95
2022-11-22T12:30:13.723Z,10.80
2022-11-22T12:35:24.635Z,10.82
2022-11-22T12:40:34.371Z,10.84
2022-11-22T12:45:43.321Z,10.77
2022-11-22T12:50:49.848Z,10.90
2022-11-22T12:55:57.459Z,10.80
2022-11-22T13:01:17.725Z,10.77
2022-11-22T13:06:25.432Z,10.86
2022-11-22T13:11:51.256Z,10.79
2022-11-22T13:16:54.659Z,10.79
2022-11-22T13:22:22.615Z,10.59
2022-11-22T13:27:44.648Z,10.73
2022-11-22T13:33:00.251Z,10.56
2022-11-22T13:38:14.748Z,10.61
2022-11-22T13:43:22.332Z,10.76
2022-11-22T13:48:41.421Z,10.89
2022-11-22T13:53:49.448Z,10.79
2022-11-22T13:59:04.854Z,10.76
2022-11-22T14:04:16.989Z,11.23
2022-11-22T14:09:29.215Z,11.59
2022-11-22T14:14:35.030Z,11.16
2022-11-22T14:19:47.433Z,11.59
2022-11-22T14:25:16.207Z,11.14
2022-11-22T14:30:23.171Z,10.68
2022-11-22T14:35:30.310Z,10.50
2022-11-22T14:40:40.018Z,10.19
2022-11-22T14:45:56.206Z,10.34
2022-11-22T14:51:07.563Z,10.42
2022-11-22T14:56:35.375Z,10.16
2022-11-22T15:01:49.716Z,10.07
2022-11-22T15:09:16.474Z,10.09
2022-11-22T15:12:44.169Z,9.97
2022-11-22T16:01:51.208Z,9.32
2022-11-22T16:06:57.232Z,9.20
2022-11-22T16:12:03.256Z,9.11
2022-11-22T16:17:31.886Z,9.13
2022-11-22T16:22:34.983Z,8.94
2022-11-22T16:27:46.949Z,9.01
2022-11-22T16:32:54.061Z,9.22
2022-11-22T16:37:58.057Z,9.03
2022-11-22T16:43:05.426Z,9.08
2022-11-22T16:48:32.640Z,8.95
2022-11-22T16:53:47.423Z,9.05
2022-11-22T16:58:51.471Z,9.12
2022-11-22T17:03:56.970Z,8.95
2022-11-22T17:09:01.085Z,9.07
2022-11-22T17:14:04.689Z,8.78
2022-11-22T17:19:14.556Z,8.82
2022-11-22T17:24:31.851Z,9.06
2022-11-22T17:29:49.704Z,9.07
2022-11-22T17:34:53.684Z,8.75
2022-11-22T17:39:57.670Z,9.05
2022-11-22T17:45:01.569Z,9.10
2022-11-22T17:50:05.608Z,9.11
2022-11-22T17:55:14.249Z,8.87
2022-11-22T18:00:18.121Z,8.93
2022-11-22T18:05:21.555Z,9.01
2022-11-22T18:10:24.638Z,9.01
2022-11-22T18:15:28.152Z,9.00
2022-11-22T18:20:31.279Z,8.84
2022-11-22T18:25:37.518Z,8.73
2022-11-22T18:30:42.814Z,8.70
2022-11-22T18:41:09.606Z,8.72
2022-11-22T18:46:12.765Z,8.61
2022-11-22T18:51:15.998Z,8.68
2022-11-22T18:56:19.583Z,8.53
2022-11-22T19:01:26.623Z,8.32
2022-11-22T19:06:29.898Z,8.34
2022-11-22T19:11:33.950Z,8.09
2022-11-22T19:16:37.592Z,7.97
2022-11-22T19:21:41.133Z,7.96
2022-11-22T19:26:44.572Z,8.01
2022-11-22T19:31:47.936Z,7.88
2022-11-22T19:36:51.270Z,7.82
2022-11-22T19:41:55.102Z,7.88
2022-11-22T19:46:58.779Z,7.73
2022-11-22T19:52:02.299Z,7.69
2022-11-22T19:57:05.395Z,7.75
2022-11-22T20:02:09.708Z,7.57
2022-11-22T20:07:13.697Z,7.13
2022-11-22T20:12:17.529Z,7.08
2022-11-22T20:17:20.972Z,6.95
2022-11-22T20:22:24.490Z,6.97
2022-11-22T20:27:29.578Z,7.26
2022-11-22T20:32:33.838Z,7.25
2022-11-22T20:37:37.574Z,7.25
2022-11-22T20:42:40.946Z,7.45
2022-11-22T20:47:44.484Z,7.67
2022-11-22T20:52:48.368Z,7.51
2022-11-22T20:57:52.015Z,7.48
2022-11-22T21:02:55.500Z,7.51
2022-11-22T21:08:02.425Z,7.29
2022-11-22T21:13:08.826Z,7.44
2022-11-22T21:18:28.379Z,7.43
2022-11-22T21:23:32.329Z,7.45
2022-11-22T21:28:38.724Z,7.43
2022-11-22T21:33:43.249Z,7.29
2022-11-22T21:38:47.241Z,7.38
2022-11-22T21:43:50.883Z,7.22
2022-11-22T21:48:56.157Z,7.25
2022-11-22T21:54:00.699Z,7.20
2022-11-22T21:59:04.599Z,7.25
2022-11-22T22:04:07.609Z,7.03
2022-11-22T22:09:11.033Z,7.00
2022-11-22T22:14:15.412Z,7.03
2022-11-22T22:19:19.056Z,6.92
2022-11-22T22:24:22.261Z,6.89
2022-11-22T22:29:26.133Z,6.66
2022-11-22T22:34:29.910Z,6.53
2022-11-22T22:39:33.335Z,7.15
2022-11-22T22:44:36.841Z,7.03
2022-11-22T22:49:40.516Z,7.19
2022-11-22T22:54:44.785Z,7.23
2022-11-22T22:59:47.965Z,7.31
2022-11-22T23:04:51.485Z,7.42
2022-11-22T23:09:54.515Z,7.53
2022-11-22T23:14:57.936Z,7.63
2022-11-22T23:20:01.479Z,7.77
2022-11-22T23:25:05.718Z,7.87
2022-11-22T23:30:09.953Z,8.10
2022-11-22T23:35:13.050Z,7.87
2022-11-22T23:40:16.528Z,7.73
2022-11-22T23:45:21.184Z,7.55
2022-11-22T23:50:25.218Z,7.55
2022-11-22T23:55:28.640Z,7.42
